sensor_id;sensor_type;location;lat;lon;timestamp;P1;durP1;ratioP1;P2;durP2;ratioP2
20306;SDS011;10312;52.434;13.206;2023-01-25T00:02:08;29.25;;;14.48;;
20306;SDS011;10312;52.434;13.206;2023-01-25T00:04:35;31.75;;;14.02;;
20306;SDS011;10312;52.434;13.206;2023-01-25T00:07:01;29.98;;;15.27;;
20306;SDS011;10312;52.434;13.206;2023-01-25T00:09:28;31.70;;;14.85;;
20306;SDS011;10312;52.434;13.206;2023-01-25T00:11:55;33.33;;;15.13;;
20306;SDS011;10312;52.434;13.206;2023-01-25T00:14:23;35.63;;;16.48;;
20306;SDS011;10312;52.434;13.206;2023-01-25T00:16:50;32.92;;;15.82;;
20306;SDS011;10312;52.434;13.206;2023-01-25T00:19:17;30.98;;;15.10;;
20306;SDS011;10312;52.434;13.206;2023-01-25T00:21:44;31.85;;;14.55;;
20306;SDS011;10312;52.434;13.206;2023-01-25T00:24:10;30.02;;;14.85;;
20306;SDS011;10312;52.434;13.206;2023-01-25T00:26:40;31.15;;;15.40;;
20306;SDS011;10312;52.434;13.206;2023-01-25T00:29:12;29.90;;;15.23;;
20306;SDS011;10312;52.434;13.206;2023-01-25T00:37:02;28.08;;;14.07;;
20306;SDS011;10312;52.434;13.206;2023-01-25T00:39:38;28.17;;;15.05;;
20306;SDS011;10312;52.434;13.206;2023-01-25T00:42:12;31.38;;;14.70;;
20306;SDS011;10312;52.434;13.206;2023-01-25T00:44:39;27.98;;;14.50;;
20306;SDS011;10312;52.434;13.206;2023-01-25T00:47:08;31.33;;;14.38;;
20306;SDS011;10312;52.434;13.206;2023-01-25T00:49:35;28.60;;;14.98;;
20306;SDS011;10312;52.434;13.206;2023-01-25T00:52:03;29.40;;;14.30;;
20306;SDS011;10312;52.434;13.206;2023-01-25T00:54:30;28.30;;;13.65;;
20306;SDS011;10312;52.434;13.206;2023-01-25T00:56:57;27.40;;;14.65;;
20306;SDS011;10312;52.434;13.206;2023-01-25T00:59:24;28.88;;;14.15;;
20306;SDS011;10312;52.434;13.206;2023-01-25T01:01:52;30.75;;;14.32;;
20306;SDS011;10312;52.434;13.206;2023-01-25T01:04:19;30.73;;;14.60;;
20306;SDS011;10312;52.434;13.206;2023-01-25T01:06:51;30.35;;;15.20;;
20306;SDS011;10312;52.434;13.206;2023-01-25T01:09:19;27.35;;;14.48;;
20306;SDS011;10312;52.434;13.206;2023-01-25T01:11:47;32.20;;;14.15;;
20306;SDS011;10312;52.434;13.206;2023-01-25T01:14:16;26.50;;;14.05;;
20306;SDS011;10312;52.434;13.206;2023-01-25T01:16:43;29.10;;;13.77;;
20306;SDS011;10312;52.434;13.206;2023-01-25T01:19:10;26.85;;;13.75;;
20306;SDS011;10312;52.434;13.206;2023-01-25T01:21:37;26.85;;;13.20;;
20306;SDS011;10312;52.434;13.206;2023-01-25T01:24:04;29.33;;;13.30;;
20306;SDS011;10312;52.434;13.206;2023-01-25T01:26:31;28.30;;;14.75;;
20306;SDS011;10312;52.434;13.206;2023-01-25T01:28:58;28.75;;;14.57;;
20306;SDS011;10312;52.434;13.206;2023-01-25T01:31:25;30.52;;;14.35;;
20306;SDS011;10312;52.434;13.206;2023-01-25T01:34:00;26.27;;;14.60;;
20306;SDS011;10312;52.434;13.206;2023-01-25T01:36:28;29.10;;;13.75;;
20306;SDS011;10312;52.434;13.206;2023-01-25T01:38:57;29.55;;;13.30;;
20306;SDS011;10312;52.434;13.206;2023-01-25T01:41:25;29.45;;;14.82;;
20306;SDS011;10312;52.434;13.206;2023-01-25T01:43:52;31.42;;;13.85;;
20306;SDS011;10312;52.434;13.206;2023-01-25T01:49:07;29.65;;;14.95;;
20306;SDS011;10312;52.434;13.206;2023-01-25T01:51:52;26.08;;;13.75;;
20306;SDS011;10312;52.434;13.206;2023-01-25T01:54:33;26.17;;;13.82;;
20306;SDS011;10312;52.434;13.206;2023-01-25T01:57:08;30.23;;;14.43;;
20306;SDS011;10312;52.434;13.206;2023-01-25T01:59:40;24.98;;;13.13;;
20306;SDS011;10312;52.434;13.206;2023-01-25T02:02:38;27.08;;;13.70;;
20306;SDS011;10312;52.434;13.206;2023-01-25T02:05:06;24.58;;;13.85;;
20306;SDS011;10312;52.434;13.206;2023-01-25T02:07:37;28.25;;;13.55;;
20306;SDS011;10312;52.434;13.206;2023-01-25T02:10:05;29.98;;;13.85;;
20306;SDS011;10312;52.434;13.206;2023-01-25T02:12:34;26.90;;;13.57;;
20306;SDS011;10312;52.434;13.206;2023-01-25T02:15:06;26.70;;;13.93;;
20306;SDS011;10312;52.434;13.206;2023-01-25T02:17:34;29.90;;;14.07;;
20306;SDS011;10312;52.434;13.206;2023-01-25T02:20:15;28.92;;;14.57;;
20306;SDS011;10312;52.434;13.206;2023-01-25T02:25:25;26.83;;;14.00;;
20306;SDS011;10312;52.434;13.206;2023-01-25T02:27:54;30.88;;;14.40;;
20306;SDS011;10312;52.434;13.206;2023-01-25T02:30:24;30.42;;;15.02;;
20306;SDS011;10312;52.434;13.206;2023-01-25T02:32:51;29.95;;;14.18;;
20306;SDS011;10312;52.434;13.206;2023-01-25T02:35:35;24.88;;;13.65;;
20306;SDS011;10312;52.434;13.206;2023-01-25T02:38:03;24.73;;;14.23;;
20306;SDS011;10312;52.434;13.206;2023-01-25T02:40:32;28.00;;;14.00;;
20306;SDS011;10312;52.434;13.206;2023-01-25T02:43:04;28.85;;;14.77;;
20306;SDS011;10312;52.434;13.206;2023-01-25T02:45:31;28.27;;;15.05;;
20306;SDS011;10312;52.434;13.206;2023-01-25T02:47:58;25.45;;;13.93;;
20306;SDS011;10312;52.434;13.206;2023-01-25T02:50:25;29.25;;;14.75;;
20306;SDS011;10312;52.434;13.206;2023-01-25T02:52:52;29.13;;;14.45;;
20306;SDS011;10312;52.434;13.206;2023-01-25T02:55:19;26.60;;;14.30;;
20306;SDS011;10312;52.434;13.206;2023-01-25T02:57:46;26.40;;;14.48;;
20306;SDS011;10312;52.434;13.206;2023-01-25T03:00:14;27.27;;;14.10;;
20306;SDS011;10312;52.434;13.206;2023-01-25T03:02:42;28.55;;;14.18;;
20306;SDS011;10312;52.434;13.206;2023-01-25T03:05:09;26.17;;;13.93;;
20306;SDS011;10312;52.434;13.206;2023-01-25T03:07:37;29.83;;;14.63;;
20306;SDS011;10312;52.434;13.206;2023-01-25T03:10:03;26.48;;;13.60;;
20306;SDS011;10312;52.434;13.206;2023-01-25T03:12:33;25.95;;;14.23;;
20306;SDS011;10312;52.434;13.206;2023-01-25T03:15:00;26.75;;;14.20;;
20306;SDS011;10312;52.434;13.206;2023-01-25T03:17:26;30.60;;;15.05;;
20306;SDS011;10312;52.434;13.206;2023-01-25T03:19:54;31.83;;;15.20;;
20306;SDS011;10312;52.434;13.206;2023-01-25T03:22:22;32.00;;;13.95;;
20306;SDS011;10312;52.434;13.206;2023-01-25T03:24:48;31.45;;;14.98;;
20306;SDS011;10312;52.434;13.206;2023-01-25T03:27:16;27.02;;;14.15;;
20306;SDS011;10312;52.434;13.206;2023-01-25T03:29:51;27.73;;;14.25;;
20306;SDS011;10312;52.434;13.206;2023-01-25T03:32:21;26.88;;;14.88;;
20306;SDS011;10312;52.434;13.206;2023-01-25T03:34:48;28.05;;;15.02;;
20306;SDS011;10312;52.434;13.206;2023-01-25T03:37:17;26.33;;;14.35;;
20306;SDS011;10312;52.434;13.206;2023-01-25T03:39:44;27.13;;;14.20;;
20306;SDS011;10312;52.434;13.206;2023-01-25T03:42:10;26.00;;;14.38;;
20306;SDS011;10312;52.434;13.206;2023-01-25T03:44:38;28.85;;;14.75;;
20306;SDS011;10312;52.434;13.206;2023-01-25T03:47:04;26.65;;;14.15;;
20306;SDS011;10312;52.434;13.206;2023-01-25T03:49:31;27.73;;;13.93;;
20306;SDS011;10312;52.434;13.206;2023-01-25T03:51:59;25.50;;;13.75;;
20306;SDS011;10312;52.434;13.206;2023-01-25T03:54:39;26.70;;;14.10;;
20306;SDS011;10312;52.434;13.206;2023-01-25T03:57:07;27.73;;;14.50;;
20306;SDS011;10312;52.434;13.206;2023-01-25T03:59:43;24.42;;;13.40;;
20306;SDS011;10312;52.434;13.206;2023-01-25T04:02:10;27.70;;;15.07;;
20306;SDS011;10312;52.434;13.206;2023-01-25T04:04:38;27.08;;;13.85;;
20306;SDS011;10312;52.434;13.206;2023-01-25T04:07:06;26.02;;;14.60;;
20306;SDS011;10312;52.434;13.206;2023-01-25T04:09:35;24.40;;;13.10;;
20306;SDS011;10312;52.434;13.206;2023-01-25T04:12:02;27.08;;;13.95;;
20306;SDS011;10312;52.434;13.206;2023-01-25T04:14:31;32.97;;;15.35;;
20306;SDS011;10312;52.434;13.206;2023-01-25T04:17:13;25.52;;;13.60;;
20306;SDS011;10312;52.434;13.206;2023-01-25T04:20:12;27.48;;;13.43;;
20306;SDS011;10312;52.434;13.206;2023-01-25T04:22:39;26.42;;;14.52;;
20306;SDS011;10312;52.434;13.206;2023-01-25T04:25:07;27.05;;;14.88;;
20306;SDS011;10312;52.434;13.206;2023-01-25T04:27:39;28.45;;;13.75;;
20306;SDS011;10312;52.434;13.206;2023-01-25T04:30:09;27.35;;;14.65;;
20306;SDS011;10312;52.434;13.206;2023-01-25T04:32:37;25.75;;;14.27;;
20306;SDS011;10312;52.434;13.206;2023-01-25T04:35:16;27.83;;;14.30;;
20306;SDS011;10312;52.434;13.206;2023-01-25T04:37:43;27.15;;;14.25;;
20306;SDS011;10312;52.434;13.206;2023-01-25T04:40:11;28.20;;;15.02;;
20306;SDS011;10312;52.434;13.206;2023-01-25T04:42:42;25.48;;;13.85;;
20306;SDS011;10312;52.434;13.206;2023-01-25T04:45:09;22.42;;;12.30;;
20306;SDS011;10312;52.434;13.206;2023-01-25T04:47:37;22.58;;;11.65;;
20306;SDS011;10312;52.434;13.206;2023-01-25T04:50:04;24.25;;;11.63;;
20306;SDS011;10312;52.434;13.206;2023-01-25T04:52:36;22.70;;;11.52;;
20306;SDS011;10312;52.434;13.206;2023-01-25T04:55:03;23.85;;;12.18;;
20306;SDS011;10312;52.434;13.206;2023-01-25T04:57:35;23.33;;;11.88;;
20306;SDS011;10312;52.434;13.206;2023-01-25T05:00:02;25.27;;;12.70;;
20306;SDS011;10312;52.434;13.206;2023-01-25T05:02:30;23.38;;;12.25;;
20306;SDS011;10312;52.434;13.206;2023-01-25T05:04:56;22.08;;;11.55;;
20306;SDS011;10312;52.434;13.206;2023-01-25T05:07:23;19.05;;;10.35;;
20306;SDS011;10312;52.434;13.206;2023-01-25T05:09:50;20.73;;;11.40;;
20306;SDS011;10312;52.434;13.206;2023-01-25T05:12:20;20.00;;;10.63;;
20306;SDS011;10312;52.434;13.206;2023-01-25T05:14:53;19.45;;;10.32;;
20306;SDS011;10312;52.434;13.206;2023-01-25T05:17:21;21.67;;;11.35;;
20306;SDS011;10312;52.434;13.206;2023-01-25T05:19:48;23.20;;;12.27;;
20306;SDS011;10312;52.434;13.206;2023-01-25T05:22:18;23.65;;;11.18;;
20306;SDS011;10312;52.434;13.206;2023-01-25T05:24:50;26.38;;;12.07;;
20306;SDS011;10312;52.434;13.206;2023-01-25T05:27:18;21.60;;;11.90;;
20306;SDS011;10312;52.434;13.206;2023-01-25T05:29:51;21.33;;;10.55;;
20306;SDS011;10312;52.434;13.206;2023-01-25T05:32:21;19.67;;;10.30;;
20306;SDS011;10312;52.434;13.206;2023-01-25T05:34:48;18.13;;;9.30;;
20306;SDS011;10312;52.434;13.206;2023-01-25T05:37:17;17.75;;;9.38;;
20306;SDS011;10312;52.434;13.206;2023-01-25T05:39:47;17.10;;;8.65;;
20306;SDS011;10312;52.434;13.206;2023-01-25T05:42:15;17.45;;;9.52;;
20306;SDS011;10312;52.434;13.206;2023-01-25T05:44:44;14.43;;;7.70;;
20306;SDS011;10312;52.434;13.206;2023-01-25T05:47:15;16.08;;;8.57;;
20306;SDS011;10312;52.434;13.206;2023-01-25T05:49:42;15.52;;;7.93;;
20306;SDS011;10312;52.434;13.206;2023-01-25T05:52:20;14.80;;;7.65;;
20306;SDS011;10312;52.434;13.206;2023-01-25T05:54:47;16.13;;;8.15;;
20306;SDS011;10312;52.434;13.206;2023-01-25T05:57:14;14.35;;;7.53;;
20306;SDS011;10312;52.434;13.206;2023-01-25T05:59:42;14.25;;;6.88;;
20306;SDS011;10312;52.434;13.206;2023-01-25T06:02:11;15.43;;;8.82;;
20306;SDS011;10312;52.434;13.206;2023-01-25T06:04:39;13.90;;;7.35;;
20306;SDS011;10312;52.434;13.206;2023-01-25T06:07:07;16.52;;;8.23;;
20306;SDS011;10312;52.434;13.206;2023-01-25T06:09:35;13.10;;;7.47;;
20306;SDS011;10312;52.434;13.206;2023-01-25T06:12:01;15.93;;;8.00;;
20306;SDS011;10312;52.434;13.206;2023-01-25T06:14:29;15.57;;;7.40;;
20306;SDS011;10312;52.434;13.206;2023-01-25T06:16:56;12.93;;;7.28;;
20306;SDS011;10312;52.434;13.206;2023-01-25T06:19:42;14.05;;;7.68;;
20306;SDS011;10312;52.434;13.206;2023-01-25T06:22:22;14.43;;;8.57;;
20306;SDS011;10312;52.434;13.206;2023-01-25T06:24:49;13.82;;;8.27;;
20306;SDS011;10312;52.434;13.206;2023-01-25T06:27:16;17.52;;;9.52;;
20306;SDS011;10312;52.434;13.206;2023-01-25T06:29:43;17.67;;;8.95;;
20306;SDS011;10312;52.434;13.206;2023-01-25T06:32:11;17.05;;;9.02;;
20306;SDS011;10312;52.434;13.206;2023-01-25T06:34:38;15.80;;;8.27;;
20306;SDS011;10312;52.434;13.206;2023-01-25T06:37:08;16.23;;;8.40;;
20306;SDS011;10312;52.434;13.206;2023-01-25T06:39:35;15.90;;;8.63;;
20306;SDS011;10312;52.434;13.206;2023-01-25T06:42:01;15.48;;;8.25;;
20306;SDS011;10312;52.434;13.206;2023-01-25T06:44:28;15.13;;;8.35;;
20306;SDS011;10312;52.434;13.206;2023-01-25T06:46:55;14.68;;;7.97;;
20306;SDS011;10312;52.434;13.206;2023-01-25T06:49:23;17.85;;;9.68;;
20306;SDS011;10312;52.434;13.206;2023-01-25T06:51:50;16.95;;;8.77;;
20306;SDS011;10312;52.434;13.206;2023-01-25T06:54:16;15.10;;;8.30;;
20306;SDS011;10312;52.434;13.206;2023-01-25T06:56:43;17.58;;;9.48;;
20306;SDS011;10312;52.434;13.206;2023-01-25T06:59:10;17.38;;;9.75;;
20306;SDS011;10312;52.434;13.206;2023-01-25T07:01:37;19.05;;;9.77;;
20306;SDS011;10312;52.434;13.206;2023-01-25T07:04:04;19.48;;;10.20;;
20306;SDS011;10312;52.434;13.206;2023-01-25T07:06:33;19.02;;;9.50;;
20306;SDS011;10312;52.434;13.206;2023-01-25T07:09:03;17.88;;;9.20;;
20306;SDS011;10312;52.434;13.206;2023-01-25T07:11:32;18.42;;;9.85;;
20306;SDS011;10312;52.434;13.206;2023-01-25T07:13:59;20.30;;;10.68;;
20306;SDS011;10312;52.434;13.206;2023-01-25T07:16:27;21.58;;;11.43;;
20306;SDS011;10312;52.434;13.206;2023-01-25T07:18:54;20.52;;;10.15;;
20306;SDS011;10312;52.434;13.206;2023-01-25T07:21:21;19.80;;;10.25;;
20306;SDS011;10312;52.434;13.206;2023-01-25T07:23:49;18.50;;;9.60;;
20306;SDS011;10312;52.434;13.206;2023-01-25T07:26:23;19.70;;;9.85;;
20306;SDS011;10312;52.434;13.206;2023-01-25T07:28:51;18.20;;;9.25;;
20306;SDS011;10312;52.434;13.206;2023-01-25T07:31:19;22.55;;;9.98;;
20306;SDS011;10312;52.434;13.206;2023-01-25T07:33:46;18.35;;;9.10;;
20306;SDS011;10312;52.434;13.206;2023-01-25T07:36:17;17.48;;;9.18;;
20306;SDS011;10312;52.434;13.206;2023-01-25T07:38:44;15.73;;;9.13;;
20306;SDS011;10312;52.434;13.206;2023-01-25T07:41:11;20.08;;;10.48;;
20306;SDS011;10312;52.434;13.206;2023-01-25T07:43:38;19.55;;;10.18;;
20306;SDS011;10312;52.434;13.206;2023-01-25T07:46:08;19.92;;;10.35;;
20306;SDS011;10312;52.434;13.206;2023-01-25T07:48:39;21.77;;;10.38;;
20306;SDS011;10312;52.434;13.206;2023-01-25T07:51:08;21.35;;;11.15;;
20306;SDS011;10312;52.434;13.206;2023-01-25T07:53:38;20.63;;;11.02;;
20306;SDS011;10312;52.434;13.206;2023-01-25T07:56:06;25.40;;;11.48;;
20306;SDS011;10312;52.434;13.206;2023-01-25T07:58:34;24.55;;;11.65;;
20306;SDS011;10312;52.434;13.206;2023-01-25T08:01:10;21.33;;;11.02;;
20306;SDS011;10312;52.434;13.206;2023-01-25T08:03:38;20.95;;;11.50;;
20306;SDS011;10312;52.434;13.206;2023-01-25T08:06:06;20.15;;;11.10;;
20306;SDS011;10312;52.434;13.206;2023-01-25T08:08:34;20.13;;;11.32;;
20306;SDS011;10312;52.434;13.206;2023-01-25T08:11:15;25.10;;;11.88;;
20306;SDS011;10312;52.434;13.206;2023-01-25T08:13:44;24.38;;;11.63;;
20306;SDS011;10312;52.434;13.206;2023-01-25T08:16:15;23.75;;;11.20;;
20306;SDS011;10312;52.434;13.206;2023-01-25T08:18:47;24.40;;;11.52;;
20306;SDS011;10312;52.434;13.206;2023-01-25T08:21:17;23.98;;;11.10;;
20306;SDS011;10312;52.434;13.206;2023-01-25T08:23:44;25.98;;;12.95;;
20306;SDS011;10312;52.434;13.206;2023-01-25T08:26:12;24.90;;;12.02;;
20306;SDS011;10312;52.434;13.206;2023-01-25T08:28:39;22.70;;;11.30;;
20306;SDS011;10312;52.434;13.206;2023-01-25T08:31:07;24.48;;;12.05;;
20306;SDS011;10312;52.434;13.206;2023-01-25T08:33:35;20.42;;;11.40;;
20306;SDS011;10312;52.434;13.206;2023-01-25T08:36:02;25.25;;;12.18;;
20306;SDS011;10312;52.434;13.206;2023-01-25T08:38:29;23.77;;;12.20;;
20306;SDS011;10312;52.434;13.206;2023-01-25T08:41:10;21.58;;;11.85;;
20306;SDS011;10312;52.434;13.206;2023-01-25T08:43:39;22.75;;;11.13;;
20306;SDS011;10312;52.434;13.206;2023-01-25T08:46:07;23.30;;;11.77;;
20306;SDS011;10312;52.434;13.206;2023-01-25T08:48:34;20.90;;;10.80;;
20306;SDS011;10312;52.434;13.206;2023-01-25T08:51:00;22.05;;;10.75;;
20306;SDS011;10312;52.434;13.206;2023-01-25T08:53:28;20.92;;;10.57;;
20306;SDS011;10312;52.434;13.206;2023-01-25T08:56:01;20.90;;;11.65;;
20306;SDS011;10312;52.434;13.206;2023-01-25T08:58:32;20.38;;;11.05;;
20306;SDS011;10312;52.434;13.206;2023-01-25T09:01:02;22.15;;;11.32;;
20306;SDS011;10312;52.434;13.206;2023-01-25T09:03:31;24.40;;;11.75;;
20306;SDS011;10312;52.434;13.206;2023-01-25T09:06:00;23.08;;;11.40;;
20306;SDS011;10312;52.434;13.206;2023-01-25T09:08:27;25.48;;;12.27;;
20306;SDS011;10312;52.434;13.206;2023-01-25T09:10:54;24.38;;;12.32;;
20306;SDS011;10312;52.434;13.206;2023-01-25T09:13:21;23.10;;;12.10;;
20306;SDS011;10312;52.434;13.206;2023-01-25T09:15:47;23.95;;;12.38;;
20306;SDS011;10312;52.434;13.206;2023-01-25T09:18:14;24.50;;;12.63;;
20306;SDS011;10312;52.434;13.206;2023-01-25T09:20:41;25.00;;;12.82;;
20306;SDS011;10312;52.434;13.206;2023-01-25T09:23:08;23.83;;;11.63;;
20306;SDS011;10312;52.434;13.206;2023-01-25T09:25:35;22.48;;;11.60;;
20306;SDS011;10312;52.434;13.206;2023-01-25T09:28:02;26.48;;;12.05;;
20306;SDS011;10312;52.434;13.206;2023-01-25T09:30:37;25.80;;;12.70;;
20306;SDS011;10312;52.434;13.206;2023-01-25T09:33:29;25.80;;;13.05;;
20306;SDS011;10312;52.434;13.206;2023-01-25T09:35:58;28.48;;;13.40;;
20306;SDS011;10312;52.434;13.206;2023-01-25T09:38:25;26.02;;;12.93;;
20306;SDS011;10312;52.434;13.206;2023-01-25T09:40:57;28.98;;;13.43;;
20306;SDS011;10312;52.434;13.206;2023-01-25T09:51:51;26.83;;;14.05;;
20306;SDS011;10312;52.434;13.206;2023-01-25T09:54:43;30.02;;;14.32;;
20306;SDS011;10312;52.434;13.206;2023-01-25T10:00:20;29.50;;;14.70;;
20306;SDS011;10312;52.434;13.206;2023-01-25T10:02:54;27.00;;;13.70;;
20306;SDS011;10312;52.434;13.206;2023-01-25T10:05:28;30.65;;;14.38;;
20306;SDS011;10312;52.434;13.206;2023-01-25T10:10:46;27.05;;;13.88;;
20306;SDS011;10312;52.434;13.206;2023-01-25T10:13:15;28.63;;;14.20;;
20306;SDS011;10312;52.434;13.206;2023-01-25T10:16:19;25.95;;;13.95;;
20306;SDS011;10312;52.434;13.206;2023-01-25T10:18:57;27.23;;;14.00;;
20306;SDS011;10312;52.434;13.206;2023-01-25T10:21:41;28.77;;;14.05;;
20306;SDS011;10312;52.434;13.206;2023-01-25T10:29:57;30.45;;;15.68;;
20306;SDS011;10312;52.434;13.206;2023-01-25T10:32:28;31.63;;;15.10;;
20306;SDS011;10312;52.434;13.206;2023-01-25T10:35:25;29.58;;;14.50;;
20306;SDS011;10312;52.434;13.206;2023-01-25T10:41:00;30.45;;;15.35;;
20306;SDS011;10312;52.434;13.206;2023-01-25T10:43:29;32.10;;;15.80;;
20306;SDS011;10312;52.434;13.206;2023-01-25T10:45:57;26.33;;;14.35;;
20306;SDS011;10312;52.434;13.206;2023-01-25T10:48:33;29.48;;;15.90;;
20306;SDS011;10312;52.434;13.206;2023-01-25T10:51:01;33.30;;;15.95;;
20306;SDS011;10312;52.434;13.206;2023-01-25T10:53:37;32.17;;;15.23;;
20306;SDS011;10312;52.434;13.206;2023-01-25T10:58:37;33.88;;;16.45;;
20306;SDS011;10312;52.434;13.206;2023-01-25T11:04:21;32.67;;;15.98;;
20306;SDS011;10312;52.434;13.206;2023-01-25T11:06:48;36.47;;;16.65;;
20306;SDS011;10312;52.434;13.206;2023-01-25T11:11:53;35.28;;;17.42;;
20306;SDS011;10312;52.434;13.206;2023-01-25T11:14:22;34.67;;;17.40;;
20306;SDS011;10312;52.434;13.206;2023-01-25T11:16:52;37.72;;;17.00;;
20306;SDS011;10312;52.434;13.206;2023-01-25T11:22:04;40.33;;;18.80;;
20306;SDS011;10312;52.434;13.206;2023-01-25T11:24:45;33.47;;;16.45;;
20306;SDS011;10312;52.434;13.206;2023-01-25T11:27:15;34.15;;;16.10;;
20306;SDS011;10312;52.434;13.206;2023-01-25T11:29:44;36.17;;;17.42;;
20306;SDS011;10312;52.434;13.206;2023-01-25T11:32:18;35.40;;;17.75;;
20306;SDS011;10312;52.434;13.206;2023-01-25T11:34:48;38.90;;;16.55;;
20306;SDS011;10312;52.434;13.206;2023-01-25T11:37:27;35.30;;;17.00;;
20306;SDS011;10312;52.434;13.206;2023-01-25T11:50:50;30.10;;;15.15;;
20306;SDS011;10312;52.434;13.206;2023-01-25T11:53:32;32.33;;;15.50;;
20306;SDS011;10312;52.434;13.206;2023-01-25T11:59:08;32.97;;;15.57;;
20306;SDS011;10312;52.434;13.206;2023-01-25T12:07:12;31.80;;;14.80;;
20306;SDS011;10312;52.434;13.206;2023-01-25T12:12:38;34.50;;;16.90;;
20306;SDS011;10312;52.434;13.206;2023-01-25T12:24:20;30.85;;;14.98;;
20306;SDS011;10312;52.434;13.206;2023-01-25T12:32:06;29.90;;;14.02;;
20306;SDS011;10312;52.434;13.206;2023-01-25T12:34:48;29.67;;;12.90;;
20306;SDS011;10312;52.434;13.206;2023-01-25T12:37:19;27.38;;;12.82;;
20306;SDS011;10312;52.434;13.206;2023-01-25T12:39:55;27.83;;;13.27;;
20306;SDS011;10312;52.434;13.206;2023-01-25T12:42:25;30.95;;;13.90;;
20306;SDS011;10312;52.434;13.206;2023-01-25T12:45:04;27.42;;;13.27;;
20306;SDS011;10312;52.434;13.206;2023-01-25T12:47:37;28.10;;;13.35;;
20306;SDS011;10312;52.434;13.206;2023-01-25T12:51:07;28.40;;;13.73;;
20306;SDS011;10312;52.434;13.206;2023-01-25T12:53:23;26.83;;;12.57;;
20306;SDS011;10312;52.434;13.206;2023-01-25T12:56:03;30.45;;;12.93;;
20306;SDS011;10312;52.434;13.206;2023-01-25T12:58:51;27.35;;;13.68;;
20306;SDS011;10312;52.434;13.206;2023-01-25T13:01:29;24.33;;;12.65;;
20306;SDS011;10312;52.434;13.206;2023-01-25T13:10:00;28.30;;;12.93;;
20306;SDS011;10312;52.434;13.206;2023-01-25T13:12:30;26.00;;;12.73;;
20306;SDS011;10312;52.434;13.206;2023-01-25T13:20:54;27.48;;;12.18;;
20306;SDS011;10312;52.434;13.206;2023-01-25T13:25:51;24.73;;;11.90;;
20306;SDS011;10312;52.434;13.206;2023-01-25T13:31:08;25.35;;;12.77;;
20306;SDS011;10312;52.434;13.206;2023-01-25T13:33:35;29.30;;;13.85;;
20306;SDS011;10312;52.434;13.206;2023-01-25T13:42:00;28.90;;;15.23;;
20306;SDS011;10312;52.434;13.206;2023-01-25T13:44:29;29.45;;;13.07;;
20306;SDS011;10312;52.434;13.206;2023-01-25T13:46:57;30.25;;;13.43;;
20306;SDS011;10312;52.434;13.206;2023-01-25T13:49:36;29.75;;;11.85;;
20306;SDS011;10312;52.434;13.206;2023-01-25T13:52:06;25.42;;;12.00;;
20306;SDS011;10312;52.434;13.206;2023-01-25T13:54:35;26.42;;;12.80;;
20306;SDS011;10312;52.434;13.206;2023-01-25T13:57:12;26.58;;;12.60;;
20306;SDS011;10312;52.434;13.206;2023-01-25T13:59:40;25.77;;;12.82;;
20306;SDS011;10312;52.434;13.206;2023-01-25T14:02:15;27.33;;;13.68;;
20306;SDS011;10312;52.434;13.206;2023-01-25T14:04:45;28.33;;;13.35;;
20306;SDS011;10312;52.434;13.206;2023-01-25T14:07:16;29.85;;;13.27;;
20306;SDS011;10312;52.434;13.206;2023-01-25T14:09:44;26.58;;;13.50;;
20306;SDS011;10312;52.434;13.206;2023-01-25T14:12:11;27.85;;;13.93;;
20306;SDS011;10312;52.434;13.206;2023-01-25T14:14:37;34.22;;;13.57;;
20306;SDS011;10312;52.434;13.206;2023-01-25T14:19:38;24.63;;;11.07;;
20306;SDS011;10312;52.434;13.206;2023-01-25T14:27:35;24.40;;;12.15;;
20306;SDS011;10312;52.434;13.206;2023-01-25T14:30:14;25.40;;;12.52;;
20306;SDS011;10312;52.434;13.206;2023-01-25T14:32:43;27.98;;;12.13;;
20306;SDS011;10312;52.434;13.206;2023-01-25T14:38:25;26.27;;;12.13;;
20306;SDS011;10312;52.434;13.206;2023-01-25T14:41:40;26.90;;;13.65;;
20306;SDS011;10312;52.434;13.206;2023-01-25T14:43:47;25.65;;;12.73;;
20306;SDS011;10312;52.434;13.206;2023-01-25T14:48:48;30.17;;;13.18;;
20306;SDS011;10312;52.434;13.206;2023-01-25T15:01:59;29.25;;;13.38;;
20306;SDS011;10312;52.434;13.206;2023-01-25T15:04:27;34.05;;;15.45;;
20306;SDS011;10312;52.434;13.206;2023-01-25T15:06:56;30.75;;;14.98;;
20306;SDS011;10312;52.434;13.206;2023-01-25T15:09:32;23.95;;;12.18;;
20306;SDS011;10312;52.434;13.206;2023-01-25T15:14:48;28.98;;;15.68;;
20306;SDS011;10312;52.434;13.206;2023-01-25T15:17:38;30.08;;;17.45;;
20306;SDS011;10312;52.434;13.206;2023-01-25T15:23:11;32.38;;;15.35;;
20306;SDS011;10312;52.434;13.206;2023-01-25T15:25:50;31.45;;;14.10;;
20306;SDS011;10312;52.434;13.206;2023-01-25T15:28:17;29.67;;;13.90;;
20306;SDS011;10312;52.434;13.206;2023-01-25T15:30:44;28.52;;;13.02;;
20306;SDS011;10312;52.434;13.206;2023-01-25T15:33:18;27.38;;;12.32;;
20306;SDS011;10312;52.434;13.206;2023-01-25T15:35:47;27.85;;;13.13;;
20306;SDS011;10312;52.434;13.206;2023-01-25T15:38:14;28.75;;;12.85;;
20306;SDS011;10312;52.434;13.206;2023-01-25T15:40:43;25.83;;;13.30;;
20306;SDS011;10312;52.434;13.206;2023-01-25T15:43:14;26.77;;;12.95;;
20306;SDS011;10312;52.434;13.206;2023-01-25T15:45:43;23.02;;;11.25;;
20306;SDS011;10312;52.434;13.206;2023-01-25T15:48:12;22.85;;;10.55;;
20306;SDS011;10312;52.434;13.206;2023-01-25T15:50:40;21.33;;;10.98;;
20306;SDS011;10312;52.434;13.206;2023-01-25T15:53:14;25.02;;;11.02;;
20306;SDS011;10312;52.434;13.206;2023-01-25T15:55:43;23.40;;;10.73;;
20306;SDS011;10312;52.434;13.206;2023-01-25T15:58:12;21.35;;;11.10;;
20306;SDS011;10312;52.434;13.206;2023-01-25T16:00:44;23.17;;;11.00;;
20306;SDS011;10312;52.434;13.206;2023-01-25T16:03:11;30.05;;;12.20;;
20306;SDS011;10312;52.434;13.206;2023-01-25T16:05:38;24.85;;;11.32;;
20306;SDS011;10312;52.434;13.206;2023-01-25T16:08:05;26.25;;;11.05;;
20306;SDS011;10312;52.434;13.206;2023-01-25T16:10:33;25.45;;;11.57;;
20306;SDS011;10312;52.434;13.206;2023-01-25T16:13:00;24.02;;;11.63;;
20306;SDS011;10312;52.434;13.206;2023-01-25T16:15:27;26.33;;;12.18;;
20306;SDS011;10312;52.434;13.206;2023-01-25T16:17:54;26.98;;;12.82;;
20306;SDS011;10312;52.434;13.206;2023-01-25T16:20:21;24.25;;;11.65;;
20306;SDS011;10312;52.434;13.206;2023-01-25T16:22:48;24.60;;;12.77;;
20306;SDS011;10312;52.434;13.206;2023-01-25T16:25:14;23.40;;;11.98;;
20306;SDS011;10312;52.434;13.206;2023-01-25T16:27:41;24.52;;;11.98;;
20306;SDS011;10312;52.434;13.206;2023-01-25T16:30:14;29.38;;;12.20;;
20306;SDS011;10312;52.434;13.206;2023-01-25T16:32:44;25.38;;;10.95;;
20306;SDS011;10312;52.434;13.206;2023-01-25T16:35:13;27.05;;;11.45;;
20306;SDS011;10312;52.434;13.206;2023-01-25T16:37:39;29.25;;;12.13;;
20306;SDS011;10312;52.434;13.206;2023-01-25T16:40:12;28.58;;;12.48;;
20306;SDS011;10312;52.434;13.206;2023-01-25T16:42:45;24.77;;;11.35;;
20306;SDS011;10312;52.434;13.206;2023-01-25T16:45:12;27.80;;;12.32;;